Accueil
METAR-TAF:

METAR-TAF

Aéroports :

Aéroport international Macdonald-Cartier d'Ottawa

Ottawa, Ontario, Canada

latitude: 45-19N, longitude: 075-40W, altitude: 116 m

Observation

Le bulletin a été fait il y a 19 minutes, à 04:00 UTC
Vent 7 kt de est
Température 19°C
Humidité 78%
Pression 1020 hPa
Visibilité: 24.1 km
Ciel clair

METAR: CYOW 150400Z 08007KT 15SM SKC 19/15 A3012 RMK SLP200 DENSITY ALT 800FT

Heure: 00:19 (04:19 UTC)

Prévision

Le bulletin a été fait il y a 1 heure et 41 minutes, à 02:38 UTC
Prévision valable du 15 à 03 UTC au 15 à 24 UTC
Vent 6 kt de est
Visibilité: 10 km
Quelques nuages à une hauteur de 9000 ft
A partir de 15 à 1700 UTC
Vent 8 kt de est
Visibilité: 10 km
Nuages fragmentés à une hauteur de 13000 ft

TAF: CYOW 150238Z 1503/1524 08006KT P6SM FEW090 FM151700 10008KT P6SM BKN130 RMK NXT FCST BY 150600Z

Observations et prévisions météorologiques de plus de 4000 aéroports (messages METAR et TAF).

Les stations disponibles sont représentées par des disques jaunes et rouges sur la carte.

Passer la souris dessus pour voir le nom de la station.

Cliquer dessus pour voir les observations et prévisions météorologiques.

Pour changer de carte: cliquez sur les boutons verts avec une croix noire pour zoomer, sur le bouton vert avec un tiret pour effectuer un zoom arrière, ou sur les flèches vertes pour les cartes adjacentes.


METAR-TAF: